createdAt,value
2018-12-16T00:09:14.408Z,103051.27
2018-12-16T00:14:38.563Z,103050.17
2018-12-16T00:17:14.240Z,103046.88
2018-12-16T00:19:44.729Z,103038.85
2018-12-16T00:27:48.524Z,103022.55
2018-12-16T00:33:08.947Z,103028.14
2018-12-16T00:35:38.540Z,103028.88
2018-12-16T00:38:07.897Z,103018.70
2018-12-16T00:40:37.090Z,103018.66
2018-12-16T00:43:06.067Z,103016.26
2018-12-16T00:48:27.153Z,103013.09
2018-12-16T00:51:00.782Z,103003.81
2018-12-16T00:53:30.148Z,103000.69
2018-12-16T00:56:08.502Z,103006.98
2018-12-16T00:58:38.072Z,102993.38
2018-12-16T01:01:17.347Z,103002.15
2018-12-16T01:03:51.214Z,102999.96
2018-12-16T01:06:24.310Z,102996.91
2018-12-16T01:08:53.572Z,102992.53
2018-12-16T01:11:22.268Z,102993.39
2018-12-16T01:13:51.164Z,102989.25
2018-12-16T01:16:20.243Z,102991.20
2018-12-16T01:18:48.862Z,102989.49
2018-12-16T01:21:17.487Z,102984.22
2018-12-16T01:23:46.250Z,102979.52
2018-12-16T01:26:14.885Z,102976.23
2018-12-16T01:28:44.683Z,102973.83
2018-12-16T01:31:13.417Z,102971.00
2018-12-16T01:33:42.032Z,102974.77
2018-12-16T01:36:10.599Z,102958.47
2018-12-16T01:38:39.195Z,102957.48
2018-12-16T01:41:07.874Z,102947.63
2018-12-16T01:43:36.366Z,102946.54
2018-12-16T01:46:04.979Z,102946.30
2018-12-16T01:48:33.472Z,102935.86
2018-12-16T01:51:01.954Z,102935.09
2018-12-16T01:53:30.570Z,102928.77
2018-12-16T01:55:59.064Z,102922.80
2018-12-16T01:58:27.568Z,102920.98
2018-12-16T02:00:56.106Z,102920.25
2018-12-16T02:03:24.819Z,102921.11
2018-12-16T02:05:53.395Z,102910.15
2018-12-16T02:08:22.083Z,102903.94
2018-12-16T02:10:50.569Z,102906.03
2018-12-16T02:13:19.066Z,102895.42
2018-12-16T02:15:47.716Z,102896.40
2018-12-16T02:18:16.211Z,102892.99
2018-12-16T02:20:44.700Z,102885.69
2018-12-16T02:23:13.315Z,102880.33
2018-12-16T02:25:41.794Z,102879.51
2018-12-16T02:28:10.309Z,102871.48
2018-12-16T02:30:38.963Z,102870.50
2018-12-16T02:33:07.535Z,102864.78
2018-12-16T02:35:36.062Z,102864.88
2018-12-16T02:38:04.607Z,102840.05
2018-12-16T02:40:33.131Z,102856.85
2018-12-16T02:43:01.737Z,102852.22
2018-12-16T02:45:30.626Z,102846.25
2018-12-16T02:47:59.094Z,102842.15
2018-12-16T02:50:27.568Z,102845.55
2018-12-16T02:52:56.149Z,102839.34
2018-12-16T02:55:24.610Z,102834.95
2018-12-16T02:57:53.072Z,102832.76
2018-12-16T03:00:22.132Z,102836.16
2018-12-16T03:02:50.614Z,102834.46
2018-12-16T03:05:19.116Z,102830.69
2018-12-16T03:07:47.881Z,102829.23
2018-12-16T03:10:16.523Z,102819.37
2018-12-16T03:12:44.998Z,102820.10
2018-12-16T03:15:13.944Z,102807.34
2018-12-16T03:17:42.424Z,102807.22
2018-12-16T03:20:10.903Z,102801.50
2018-12-16T03:22:40.002Z,102797.70
2018-12-16T03:25:08.531Z,102791.14
2018-12-16T03:27:37.045Z,102792.86
2018-12-16T03:30:07.076Z,102792.73
2018-12-16T03:32:35.628Z,102784.68
2018-12-16T03:35:04.123Z,102779.09
2018-12-16T03:37:32.979Z,102779.11
2018-12-16T03:40:01.450Z,102771.44
2018-12-16T03:42:29.983Z,102769.48
2018-12-16T03:44:58.803Z,102767.06
2018-12-16T03:47:27.292Z,102766.06
2018-12-16T03:49:55.744Z,102769.84
2018-12-16T03:52:24.802Z,102766.08
2018-12-16T03:54:53.324Z,102766.08
2018-12-16T03:57:21.796Z,102763.77
2018-12-16T03:59:50.889Z,102754.75
2018-12-16T04:02:19.539Z,102753.78
2018-12-16T04:04:48.038Z,102752.56
2018-12-16T04:07:16.587Z,102755.50
2018-12-16T04:09:45.059Z,102743.31
2018-12-16T04:12:19.539Z,102741.61
2018-12-16T04:14:48.027Z,102739.56
2018-12-16T04:17:16.520Z,102742.59
2018-12-16T04:19:45.612Z,102738.94
2018-12-16T04:22:14.212Z,102737.97
2018-12-16T04:24:42.682Z,102729.94
2018-12-16T04:27:11.222Z,102727.02
2018-12-16T04:29:39.683Z,102714.37
2018-12-16T04:32:08.359Z,102719.22
2018-12-16T04:34:36.891Z,102718.02
2018-12-16T04:37:05.350Z,102715.83
2018-12-16T04:39:33.918Z,102701.95
2018-12-16T04:42:02.583Z,102700.13
2018-12-16T04:44:31.049Z,102698.16
2018-12-16T04:46:59.704Z,102701.34
2018-12-16T04:49:28.235Z,102694.99
2018-12-16T04:51:56.907Z,102687.94
2018-12-16T04:54:25.383Z,102694.05
2018-12-16T04:56:53.951Z,102692.93
2018-12-16T04:59:22.426Z,102691.47
2018-12-16T05:01:51.033Z,102685.17
2018-12-16T05:04:19.635Z,102691.86
2018-12-16T05:06:48.136Z,102674.55
2018-12-16T05:09:16.627Z,102677.13
2018-12-16T05:11:50.579Z,102680.17
2018-12-16T05:14:19.059Z,102674.68
2018-12-16T05:16:47.555Z,102670.44
2018-12-16T05:19:16.180Z,102670.44
2018-12-16T05:21:44.834Z,102668.97
2018-12-16T05:24:13.302Z,102668.84
2018-12-16T05:26:42.270Z,102668.02
2018-12-16T05:29:10.748Z,102663.51
2018-12-16T05:31:39.262Z,102659.49
2018-12-16T05:34:07.908Z,102665.44
2018-12-16T05:36:36.399Z,102667.50
2018-12-16T05:39:05.851Z,102664.98
2018-12-16T05:41:39.686Z,102660.34
2018-12-16T05:44:08.174Z,102661.53
2018-12-16T05:46:36.647Z,102656.20
2018-12-16T05:49:05.329Z,102655.47
2018-12-16T05:51:33.846Z,102656.59
2018-12-16T05:54:02.319Z,102650.13
2018-12-16T05:56:30.918Z,102650.72
2018-12-16T05:58:59.394Z,102644.16
2018-12-16T06:01:27.882Z,102637.59
2018-12-16T06:03:56.486Z,102636.87
2018-12-16T06:06:24.998Z,102632.14
2018-12-16T06:08:53.450Z,102634.55
2018-12-16T06:11:22.929Z,102626.16
2018-12-16T06:13:51.402Z,102624.20
2018-12-16T06:16:19.854Z,102630.54
2018-12-16T06:18:48.806Z,102614.50
2018-12-16T06:21:17.667Z,102624.44
2018-12-16T06:23:46.135Z,102620.45
2018-12-16T06:26:14.762Z,102623.84
2018-12-16T06:28:43.246Z,102605.39
2018-12-16T06:31:12.062Z,102626.78
2018-12-16T06:33:40.667Z,102626.88
2018-12-16T06:36:09.136Z,102623.13
2018-12-16T06:38:54.006Z,102625.45
2018-12-16T06:41:23.122Z,102614.73
2018-12-16T06:43:51.688Z,102620.31
2018-12-16T06:46:20.327Z,102619.27
2018-12-16T06:48:48.847Z,102619.14
2018-12-16T06:51:17.655Z,102618.77
2018-12-16T06:53:46.367Z,102607.91
2018-12-16T06:56:14.838Z,102611.56
2018-12-16T06:58:43.310Z,102614.61
2018-12-16T07:01:12.063Z,102613.40
2018-12-16T07:03:40.526Z,102616.66
2018-12-16T07:06:09.022Z,102618.26
2018-12-16T07:08:38.155Z,102612.67
2018-12-16T07:11:06.667Z,102613.39
2018-12-16T07:13:35.271Z,102610.23
2018-12-16T07:16:03.854Z,102608.63
2018-12-16T07:18:32.379Z,102608.04
2018-12-16T07:21:00.914Z,102608.77
2018-12-16T07:23:29.865Z,102602.69
2018-12-16T07:25:58.356Z,102598.55
2018-12-16T07:28:26.861Z,102592.96
2018-12-16T07:30:55.515Z,102592.83
2018-12-16T07:33:24.003Z,102593.33
2018-12-16T07:35:52.617Z,102589.89
2018-12-16T07:38:21.240Z,102588.55
2018-12-16T07:40:51.409Z,102592.93
2018-12-16T07:43:20.015Z,102589.05
2018-12-16T07:45:48.607Z,102581.28
2018-12-16T07:48:17.715Z,102577.72
2018-12-16T07:50:46.289Z,102569.82
2018-12-16T07:53:14.986Z,102575.66
2018-12-16T07:55:43.455Z,102577.98
2018-12-16T07:58:12.091Z,102580.30
2018-12-16T08:00:40.818Z,102579.19
2018-12-16T08:03:09.290Z,102577.72
2018-12-16T08:05:37.803Z,102575.20
2018-12-16T08:08:06.514Z,102581.05
2018-12-16T08:10:35.006Z,102580.79
2018-12-16T08:13:03.490Z,102583.36
2018-12-16T08:15:32.039Z,102576.41
2018-12-16T08:18:00.515Z,102582.84
2018-12-16T08:20:29.005Z,102577.36
2018-12-16T08:22:57.531Z,102573.48
2018-12-16T08:25:26.011Z,102581.41
2018-12-16T08:27:54.487Z,102577.52
2018-12-16T08:30:23.190Z,102580.07
2018-12-16T08:32:51.670Z,102575.95
2018-12-16T08:35:20.138Z,102574.81
2018-12-16T08:37:49.054Z,102574.59
2018-12-16T08:40:17.539Z,102577.03
2018-12-16T08:42:46.036Z,102575.10
2018-12-16T08:45:14.659Z,102571.19
2018-12-16T08:47:43.147Z,102571.32
2018-12-16T08:50:11.614Z,102566.23
2018-12-16T08:52:40.254Z,102554.77
2018-12-16T08:55:09.256Z,102557.29
2018-12-16T08:57:37.744Z,102557.91
2018-12-16T09:00:06.362Z,102562.45
2018-12-16T09:02:34.854Z,102553.80
2018-12-16T09:05:03.407Z,102551.87
2018-12-16T09:07:37.267Z,102549.42
2018-12-16T09:10:02.554Z,102548.93
2018-12-16T09:12:31.051Z,102539.20
2018-12-16T09:14:59.685Z,102544.20
2018-12-16T09:17:28.167Z,102538.98
2018-12-16T09:19:56.722Z,102529.35
2018-12-16T09:22:26.639Z,102522.17
2018-12-16T09:24:58.861Z,102520.38
2018-12-16T09:27:27.795Z,102518.91
2018-12-16T09:29:57.077Z,102516.14
2018-12-16T09:32:25.539Z,102507.59
2018-12-16T09:34:54.454Z,102504.33
2018-12-16T09:37:23.023Z,102502.59
2018-12-16T09:39:51.562Z,102500.89
2018-12-16T09:42:20.102Z,102497.50
2018-12-16T09:44:48.605Z,102500.57
2018-12-16T09:47:17.090Z,102496.42
2018-12-16T09:49:45.690Z,102498.97
2018-12-16T09:52:14.159Z,102501.42
2018-12-16T09:54:44.432Z,102494.37
2018-12-16T09:57:13.911Z,102487.42
2018-12-16T09:59:42.461Z,102495.19
2018-12-16T10:02:10.930Z,102490.59
2018-12-16T10:04:39.603Z,102486.31
2018-12-16T10:07:08.110Z,102491.30
2018-12-16T10:09:36.583Z,102487.55
2018-12-16T10:12:05.251Z,102484.38
2018-12-16T10:14:33.748Z,102472.08
2018-12-16T10:17:02.210Z,102469.63
2018-12-16T10:19:31.163Z,102464.05
2018-12-16T10:21:59.791Z,102452.95
2018-12-16T10:24:28.251Z,102450.19
2018-12-16T10:26:56.863Z,102452.99
2018-12-16T10:29:25.351Z,102442.02
2018-12-16T10:31:53.827Z,102440.95
2018-12-16T10:34:22.339Z,102444.70
2018-12-16T10:36:50.810Z,102439.25
2018-12-16T10:39:19.308Z,102436.67
2018-12-16T10:41:48.411Z,102425.12
2018-12-16T10:44:16.881Z,102418.28
2018-12-16T10:46:45.383Z,102415.53
2018-12-16T10:49:13.999Z,102414.06
2018-12-16T10:51:42.763Z,102416.64
2018-12-16T10:54:11.227Z,102405.95
2018-12-16T10:56:39.752Z,102411.30
2018-12-16T10:59:08.334Z,102404.34
2018-12-16T11:01:36.846Z,102409.11
2018-12-16T11:04:06.271Z,102405.33
2018-12-16T11:06:34.862Z,102392.19
2018-12-16T11:09:03.423Z,102390.84
2018-12-16T11:11:32.069Z,102386.01
2018-12-16T11:14:00.540Z,102391.23
2018-12-16T11:16:29.005Z,102375.31
2018-12-16T11:18:57.547Z,102377.00
2018-12-16T11:21:31.307Z,102373.84
2018-12-16T11:24:00.357Z,102368.01
2018-12-16T11:26:28.832Z,102359.84
2018-12-16T11:28:57.315Z,102356.06
2018-12-16T11:31:25.938Z,102353.52
2018-12-16T11:33:54.418Z,102343.44
2018-12-16T11:36:22.906Z,102342.69
2018-12-16T11:38:51.868Z,102339.55
2018-12-16T11:41:20.339Z,102334.20
2018-12-16T11:43:48.794Z,102333.95
2018-12-16T11:46:17.419Z,102327.62
2018-12-16T11:48:45.894Z,102337.34
2018-12-16T11:51:14.367Z,102337.34
2018-12-16T11:53:42.917Z,102333.23
2018-12-16T11:56:11.408Z,102334.66
2018-12-16T11:58:39.887Z,102334.09
2018-12-16T12:01:08.634Z,102334.78
2018-12-16T12:03:37.103Z,102329.80
2018-12-16T12:06:05.591Z,102314.24
2018-12-16T12:08:34.258Z,102306.58
2018-12-16T12:11:02.900Z,102295.41
2018-12-16T12:13:31.411Z,102299.16
2018-12-16T12:16:00.019Z,102297.72
2018-12-16T12:18:28.490Z,102295.14
2018-12-16T12:21:06.596Z,102286.29
2018-12-16T12:23:35.139Z,102284.24
2018-12-16T12:26:03.686Z,102280.20
2018-12-16T12:28:32.542Z,102276.44
2018-12-16T12:31:01.147Z,102269.02
2018-12-16T12:33:29.623Z,102276.20
2018-12-16T12:35:58.232Z,102271.34
2018-12-16T12:38:26.702Z,102266.24
2018-12-16T12:40:55.188Z,102269.88
2018-12-16T12:43:25.028Z,102265.38
2018-12-16T12:45:53.626Z,102271.44
2018-12-16T12:48:22.215Z,102263.33
2018-12-16T12:50:50.756Z,102257.47
2018-12-16T12:53:19.239Z,102257.82
2018-12-16T12:55:47.760Z,102259.76
2018-12-16T12:58:16.615Z,102259.41
2018-12-16T13:00:45.099Z,102251.87
2018-12-16T13:03:13.813Z,102237.94
2018-12-16T13:05:42.435Z,102240.59
2018-12-16T13:08:10.922Z,102236.66
2018-12-16T13:10:39.387Z,102239.69
2018-12-16T13:13:08.595Z,102230.22
2018-12-16T13:15:37.095Z,102228.98
2018-12-16T13:18:05.626Z,102228.14
2018-12-16T13:20:34.559Z,102219.82
2018-12-16T13:23:03.026Z,102214.55
2018-12-16T13:25:43.150Z,102211.80
2018-12-16T13:28:11.819Z,102206.25
2018-12-16T13:30:40.484Z,102211.25
2018-12-16T13:33:08.974Z,102211.00
2018-12-16T13:35:37.943Z,102212.70
2018-12-16T13:38:06.403Z,102214.28
2018-12-16T13:40:34.891Z,102209.20
2018-12-16T13:43:03.436Z,102207.59
2018-12-16T13:45:31.923Z,102201.80
2018-12-16T13:48:00.395Z,102201.53
2018-12-16T13:50:29.002Z,102197.00
2018-12-16T13:52:57.511Z,102190.20
2018-12-16T13:55:25.986Z,102185.95
2018-12-16T13:57:54.967Z,102185.34
2018-12-16T14:00:23.475Z,102183.27
2018-12-16T14:02:51.958Z,102182.09
2018-12-16T14:05:20.647Z,102179.91
2018-12-16T14:07:49.111Z,102170.06
2018-12-16T14:10:17.583Z,102172.81
2018-12-16T14:12:46.172Z,102172.11
2018-12-16T14:15:14.633Z,102167.95
2018-12-16T14:17:43.214Z,102163.94
2018-12-16T14:20:11.747Z,102164.30
2018-12-16T14:22:40.215Z,102155.63
2018-12-16T14:25:08.694Z,102154.64
2018-12-16T14:27:37.566Z,102144.02
2018-12-16T14:30:08.154Z,102144.27
2018-12-16T14:32:36.630Z,102147.32
2018-12-16T14:35:05.562Z,102150.35
2018-12-16T14:37:34.024Z,102147.64
2018-12-16T14:40:02.509Z,102139.48
2018-12-16T14:42:31.139Z,102141.09
2018-12-16T14:44:59.610Z,102129.23
2018-12-16T14:47:28.079Z,102132.82
2018-12-16T14:49:57.863Z,102129.16
2018-12-16T14:52:26.323Z,102119.20
2018-12-16T14:54:54.784Z,102112.90
2018-12-16T14:57:23.386Z,102113.75
2018-12-16T14:59:51.863Z,102116.28
2018-12-16T15:02:20.379Z,102109.59
2018-12-16T15:04:49.743Z,102099.88
2018-12-16T15:07:18.308Z,102093.54
2018-12-16T15:09:46.787Z,102100.47
2018-12-16T15:12:15.395Z,102104.23
2018-12-16T15:14:43.877Z,102102.30
2018-12-16T15:17:12.356Z,102096.95
2018-12-16T15:19:40.877Z,102093.16
2018-12-16T15:22:09.353Z,102094.00
2018-12-16T15:24:37.823Z,102094.00
2018-12-16T15:27:06.414Z,102087.20
2018-12-16T15:29:34.888Z,102086.25
2018-12-16T15:32:03.375Z,102080.16
2018-12-16T15:34:32.236Z,102079.42
2018-12-16T15:37:00.794Z,102075.80
2018-12-16T15:39:29.320Z,102079.78
2018-12-16T15:41:57.968Z,102072.98
2018-12-16T15:44:26.434Z,102068.48
2018-12-16T15:46:54.904Z,102066.44
2018-12-16T15:49:23.499Z,102050.14
2018-12-16T15:51:52.043Z,102057.42
2018-12-16T15:54:20.521Z,102041.48
2018-12-16T15:56:49.058Z,102041.83
2018-12-16T15:59:17.546Z,102034.19
2018-12-16T16:01:46.003Z,102030.88
2018-12-16T16:04:14.543Z,102027.42
2018-12-16T16:06:43.015Z,102022.50
2018-12-16T16:09:11.571Z,102028.91
2018-12-16T16:11:40.479Z,102023.98
2018-12-16T16:14:08.971Z,102018.34
2018-12-16T16:16:37.487Z,102012.30
2018-12-16T16:19:06.026Z,102011.95
2018-12-16T16:21:34.559Z,102007.64
2018-12-16T16:24:03.024Z,101999.16
2018-12-16T16:26:31.632Z,102000.27
2018-12-16T16:29:00.110Z,102003.17
2018-12-16T16:31:28.671Z,102000.20
2018-12-16T16:33:57.754Z,101999.80
2018-12-16T16:36:26.217Z,101998.42
2018-12-16T16:38:54.902Z,101991.98
2018-12-16T16:41:23.782Z,101998.63
2018-12-16T16:43:52.326Z,101989.90
2018-12-16T16:46:20.819Z,101994.31
2018-12-16T16:48:49.432Z,101974.64
2018-12-16T16:51:17.936Z,101985.53
2018-12-16T16:53:46.423Z,101986.28
2018-12-16T16:56:15.027Z,101980.84
2018-12-16T16:58:43.494Z,101979.64
2018-12-16T17:01:11.990Z,101979.95
2018-12-16T17:03:40.510Z,101974.34
2018-12-16T17:06:08.992Z,101974.95
2018-12-16T17:08:37.487Z,101963.09
2018-12-16T17:11:11.523Z,101958.38
2018-12-16T17:13:40.002Z,101959.09
2018-12-16T17:16:08.703Z,101941.41
2018-12-16T17:18:37.895Z,101942.00
2018-12-16T17:21:06.746Z,101930.20
2018-12-16T17:23:35.211Z,101931.29
2018-12-16T17:26:03.815Z,101935.80
2018-12-16T17:28:32.283Z,101928.52
2018-12-16T17:31:00.827Z,101923.56
2018-12-16T17:33:29.493Z,101922.78
2018-12-16T17:35:57.968Z,101927.52
2018-12-16T17:38:26.522Z,101920.11
2018-12-16T17:41:00.230Z,101921.09
2018-12-16T17:43:28.697Z,101915.65
2018-12-16T17:45:57.168Z,101920.11
2018-12-16T17:48:26.018Z,101916.00
2018-12-16T17:50:54.502Z,101922.43
2018-12-16T17:53:22.995Z,101917.58
2018-12-16T17:55:51.510Z,101922.66
2018-12-16T17:58:19.994Z,101912.91
2018-12-16T18:00:48.611Z,101904.34
2018-12-16T18:03:17.222Z,101901.37
2018-12-16T18:05:45.731Z,101908.80
2018-12-16T18:08:14.210Z,101907.17
2018-12-16T18:10:47.846Z,101903.94
2018-12-16T18:13:16.403Z,101880.73
2018-12-16T18:15:44.886Z,101888.41
2018-12-16T18:18:13.419Z,101892.45
2018-12-16T18:20:41.960Z,101888.64
2018-12-16T18:23:10.494Z,101885.23
2018-12-16T18:25:39.229Z,101877.68
2018-12-16T18:28:07.711Z,101872.53
2018-12-16T18:30:36.219Z,101866.69
2018-12-16T18:33:05.161Z,101870.91
2018-12-16T18:35:33.627Z,101856.54
2018-12-16T18:38:03.087Z,101846.09
2018-12-16T18:40:31.690Z,101851.04
2018-12-16T18:43:00.164Z,101849.30
2018-12-16T18:45:28.631Z,101843.02
2018-12-16T18:47:57.235Z,101842.95
2018-12-16T18:50:25.694Z,101842.76
2018-12-16T18:52:54.155Z,101828.53
2018-12-16T18:55:22.786Z,101833.89
2018-12-16T18:57:51.302Z,101833.16
2018-12-16T19:00:19.766Z,101836.56
2018-12-16T19:02:48.361Z,101835.84
2018-12-16T19:05:17.855Z,101844.49
2018-12-16T19:07:46.330Z,101839.39
2018-12-16T19:10:15.419Z,101829.87
2018-12-16T19:12:43.891Z,101828.88
2018-12-16T19:15:13.181Z,101819.38
2018-12-16T19:17:41.915Z,101817.11
2018-12-16T19:20:10.378Z,101820.83
2018-12-16T19:22:39.139Z,101824.94
2018-12-16T19:25:07.618Z,101828.36
2018-12-16T19:27:36.154Z,101826.04
2018-12-16T19:30:05.014Z,101824.17
2018-12-16T19:32:38.814Z,101815.16
2018-12-16T19:35:08.522Z,101808.97
2018-12-16T19:37:37.000Z,101815.66
2018-12-16T19:40:05.630Z,101814.44
2018-12-16T19:42:34.168Z,101802.41
2018-12-16T19:45:02.640Z,101807.75
2018-12-16T19:47:31.119Z,101806.06
2018-12-16T19:49:59.727Z,101799.52
2018-12-16T19:52:28.212Z,101783.55
2018-12-16T19:54:57.387Z,101790.78
2018-12-16T19:57:26.286Z,101788.81
2018-12-16T19:59:54.838Z,101788.75
2018-12-16T20:02:23.390Z,101791.43
2018-12-16T20:04:57.047Z,101786.43
2018-12-16T20:07:25.514Z,101777.06
2018-12-16T20:09:54.006Z,101775.45
2018-12-16T20:12:22.543Z,101778.23
2018-12-16T20:14:50.998Z,101781.29
2018-12-16T20:17:19.579Z,101779.89
2018-12-16T20:19:48.744Z,101787.13
2018-12-16T20:22:17.210Z,101787.77
2018-12-16T20:24:45.690Z,101782.41
2018-12-16T20:27:14.206Z,101771.91
2018-12-16T20:29:42.747Z,101770.03
2018-12-16T20:32:11.325Z,101770.44
2018-12-16T20:34:39.811Z,101765.67
2018-12-16T20:37:08.287Z,101760.09
2018-12-16T20:39:36.951Z,101759.33
2018-12-16T20:42:05.414Z,101759.72
2018-12-16T20:44:33.911Z,101749.27
2018-12-16T20:47:02.511Z,101746.59
2018-12-16T20:49:30.986Z,101740.52
2018-12-16T20:51:59.447Z,101740.03
2018-12-16T20:54:27.985Z,101736.16
2018-12-16T20:56:56.466Z,101737.73
2018-12-16T20:59:24.934Z,101739.91
2018-12-16T21:01:53.534Z,101728.41
2018-12-16T21:04:22.019Z,101734.45
2018-12-16T21:06:50.496Z,101721.53
2018-12-16T21:09:19.104Z,101711.44
2018-12-16T21:11:52.923Z,101714.91
2018-12-16T21:14:26.900Z,101711.52
2018-12-16T21:17:00.451Z,101719.89
2018-12-16T21:19:29.499Z,101709.14
2018-12-16T21:21:58.093Z,101705.83
2018-12-16T21:24:26.547Z,101706.02
2018-12-16T21:26:55.150Z,101703.49
2018-12-16T21:29:23.642Z,101700.82
2018-12-16T21:31:52.247Z,101702.08
2018-12-16T21:34:20.855Z,101703.98
2018-12-16T21:36:49.366Z,101697.11
2018-12-16T21:39:17.851Z,101696.80
2018-12-16T21:41:46.483Z,101689.47
2018-12-16T21:44:14.955Z,101690.16
2018-12-16T21:46:43.441Z,101684.47
2018-12-16T21:49:12.098Z,101673.08
2018-12-16T21:51:40.778Z,101671.73
2018-12-16T21:54:09.245Z,101667.03
2018-12-16T21:56:37.868Z,101670.05
2018-12-16T21:59:06.343Z,101669.55
2018-12-16T22:01:34.831Z,101666.73
2018-12-16T22:04:03.987Z,101663.36
2018-12-16T22:06:32.459Z,101663.36
2018-12-16T22:09:00.938Z,101661.08
2018-12-16T22:11:30.011Z,101661.03
2018-12-16T22:13:58.475Z,101664.36
2018-12-16T22:16:26.927Z,101653.66
2018-12-16T22:18:55.540Z,101649.64
2018-12-16T22:21:24.151Z,101641.97
2018-12-16T22:23:52.646Z,101643.16
2018-12-16T22:26:21.264Z,101631.76
2018-12-16T22:28:49.746Z,101632.71
2018-12-16T22:31:18.226Z,101625.56
2018-12-16T22:33:47.070Z,101621.55
2018-12-16T22:36:15.539Z,101618.03
2018-12-16T22:38:44.047Z,101616.66
2018-12-16T22:41:12.574Z,101611.19
2018-12-16T22:43:41.323Z,101613.22
2018-12-16T22:46:10.024Z,101609.20
2018-12-16T22:48:38.559Z,101606.03
2018-12-16T22:51:07.072Z,101605.50
2018-12-16T22:53:35.535Z,101609.89
2018-12-16T22:56:04.219Z,101610.73
2018-12-16T22:58:32.697Z,101604.69
2018-12-16T23:01:06.313Z,101600.14
2018-12-16T23:03:34.901Z,101601.67
2018-12-16T23:06:03.400Z,101595.83
2018-12-16T23:08:32.032Z,101591.50
2018-12-16T23:11:00.517Z,101589.92
2018-12-16T23:13:28.995Z,101588.70
2018-12-16T23:15:57.515Z,101588.20
2018-12-16T23:18:25.983Z,101589.73
2018-12-16T23:20:54.451Z,101588.70
2018-12-16T23:23:23.489Z,101585.69
2018-12-16T23:25:51.959Z,101579.46
2018-12-16T23:28:20.559Z,101573.92
2018-12-16T23:30:49.182Z,101577.34
2018-12-16T23:33:17.696Z,101577.53
2018-12-16T23:35:46.203Z,101575.11
2018-12-16T23:38:14.743Z,101573.52
2018-12-16T23:40:43.218Z,101570.53
2018-12-16T23:43:11.699Z,101571.38
2018-12-16T23:45:40.227Z,101568.67
2018-12-16T23:48:08.738Z,101557.65
2018-12-16T23:50:37.318Z,101550.62
2018-12-16T23:53:06.169Z,101560.30
2018-12-16T23:55:34.646Z,101556.38
2018-12-16T23:58:03.120Z,101553.70
